createdAt,value
2022-09-20T00:01:35.866Z,1.30
2022-09-20T00:04:07.040Z,1.20
2022-09-20T00:06:35.413Z,1.42
2022-09-20T00:09:04.736Z,1.60
2022-09-20T00:11:34.982Z,1.60
2022-09-20T00:14:08.406Z,1.45
2022-09-20T00:16:40.998Z,1.70
2022-09-20T00:19:09.317Z,1.50
2022-09-20T00:21:37.840Z,1.50
2022-09-20T00:24:06.074Z,1.63
2022-09-20T00:26:33.919Z,1.40
2022-09-20T00:29:01.637Z,1.40
2022-09-20T00:31:29.269Z,1.30
2022-09-20T00:34:16.961Z,1.52
2022-09-20T00:36:45.190Z,1.38
2022-09-20T00:39:15.598Z,1.30
2022-09-20T00:41:43.986Z,1.30
2022-09-20T00:44:57.131Z,1.50
2022-09-20T00:47:44.676Z,1.40
2022-09-20T00:50:25.407Z,1.20
2022-09-20T00:53:06.295Z,1.20
2022-09-20T00:55:38.200Z,0.90
2022-09-20T00:58:06.990Z,1.15
2022-09-20T01:00:34.494Z,1.00
2022-09-20T01:03:09.017Z,1.00
2022-09-20T01:05:38.277Z,1.00
2022-09-20T01:08:07.000Z,1.30
2022-09-20T01:10:34.767Z,1.20
2022-09-20T01:13:02.874Z,1.33
2022-09-20T01:15:32.936Z,1.20
2022-09-20T01:18:03.822Z,1.23
2022-09-20T01:20:42.132Z,1.17
2022-09-20T01:26:09.940Z,1.08
2022-09-20T01:28:42.303Z,1.10
2022-09-20T01:31:26.755Z,1.30
2022-09-20T01:34:09.575Z,1.30
2022-09-20T01:36:53.170Z,1.10
2022-09-20T01:39:52.392Z,1.00
2022-09-20T01:42:30.029Z,0.90
2022-09-20T01:45:09.851Z,0.90
2022-09-20T01:47:56.816Z,1.00
2022-09-20T01:50:45.523Z,0.80
2022-09-20T01:54:00.330Z,0.80
2022-09-20T01:56:44.496Z,1.00
2022-09-20T01:59:51.388Z,0.98
2022-09-20T02:03:08.515Z,1.00
2022-09-20T02:05:47.653Z,1.10
2022-09-20T02:08:51.773Z,1.00
2022-09-20T02:11:23.461Z,0.90
2022-09-20T02:14:27.510Z,0.93
2022-09-20T02:17:05.108Z,0.98
2022-09-20T02:19:38.604Z,1.00
2022-09-20T02:22:31.375Z,0.93
2022-09-20T02:25:33.194Z,0.75
2022-09-20T02:28:42.074Z,1.02
2022-09-20T02:31:36.734Z,0.90
2022-09-20T02:34:42.814Z,1.00
2022-09-20T02:37:52.946Z,0.80
2022-09-20T02:41:07.000Z,0.80
2022-09-20T02:44:16.585Z,1.00
2022-09-20T02:47:02.234Z,1.80
2022-09-20T02:50:08.244Z,1.48
2022-09-20T02:53:04.271Z,1.05
2022-09-20T02:55:56.431Z,1.00
2022-09-20T02:58:38.789Z,1.17
2022-09-20T03:01:24.683Z,0.90
2022-09-20T03:04:25.725Z,0.80
2022-09-20T03:07:58.060Z,0.80
2022-09-20T03:10:54.807Z,0.98
2022-09-20T03:13:40.560Z,0.75
2022-09-20T03:16:30.816Z,0.90
2022-09-20T03:19:00.849Z,0.80
2022-09-20T03:21:34.784Z,0.88
2022-09-20T03:24:33.361Z,0.90
2022-09-20T03:27:24.215Z,0.68
2022-09-20T03:30:26.287Z,0.80
2022-09-20T03:33:42.512Z,0.77
2022-09-20T03:36:54.281Z,1.00
2022-09-20T03:39:43.226Z,0.80
2022-09-20T03:42:29.650Z,1.10
2022-09-20T03:45:35.293Z,1.10
2022-09-20T03:48:37.060Z,1.10
2022-09-20T03:51:49.643Z,1.00
2022-09-20T03:54:48.044Z,1.10
2022-09-20T03:58:16.495Z,1.30
2022-09-20T04:01:12.414Z,1.20
2022-09-20T04:04:13.015Z,1.00
2022-09-20T04:07:08.653Z,1.05
2022-09-20T04:10:00.359Z,1.00
2022-09-20T04:12:50.449Z,1.10
2022-09-20T04:15:46.120Z,1.20
2022-09-20T04:18:46.439Z,1.17
2022-09-20T04:21:31.626Z,1.20
2022-09-20T04:24:30.022Z,1.30
2022-09-20T04:27:06.099Z,1.50
2022-09-20T04:30:20.995Z,1.40
2022-09-20T04:32:54.659Z,1.42
2022-09-20T04:36:25.832Z,1.60
2022-09-20T04:39:06.177Z,1.38
2022-09-20T04:42:22.045Z,1.80
2022-09-20T04:44:58.089Z,1.70
2022-09-20T04:47:45.108Z,1.55
2022-09-20T04:50:41.578Z,1.55
2022-09-20T04:53:22.341Z,1.60
2022-09-20T04:55:55.605Z,1.35
2022-09-20T04:58:50.895Z,1.58
2022-09-20T05:02:09.178Z,2.00
2022-09-20T05:04:55.296Z,2.15
2022-09-20T05:08:05.087Z,2.67
2022-09-20T05:11:30.588Z,2.33
2022-09-20T05:14:54.015Z,1.77
2022-09-20T05:17:32.842Z,2.17
2022-09-20T05:20:28.000Z,2.75
2022-09-20T05:23:15.244Z,2.30
2022-09-20T05:26:08.315Z,1.95
2022-09-20T05:29:02.288Z,1.30
2022-09-20T05:32:12.680Z,1.40
2022-09-20T05:35:05.376Z,1.42
2022-09-20T05:38:06.128Z,1.40
2022-09-20T05:41:14.239Z,1.50
2022-09-20T05:44:12.656Z,1.30
2022-09-20T05:47:08.857Z,1.58
2022-09-20T05:50:13.957Z,1.60
2022-09-20T05:53:38.015Z,1.70
2022-09-20T05:57:07.328Z,1.80
2022-09-20T06:00:17.056Z,1.60
2022-09-20T06:03:10.455Z,1.58
2022-09-20T06:06:04.804Z,2.90
2022-09-20T06:09:05.511Z,3.17
2022-09-20T06:12:19.374Z,2.58
2022-09-20T06:15:13.072Z,1.88
2022-09-20T06:17:53.215Z,1.63
2022-09-20T06:20:37.388Z,1.60
2022-09-20T06:23:06.214Z,2.10
2022-09-20T06:25:56.082Z,2.90
2022-09-20T06:28:31.000Z,2.53
2022-09-20T06:30:58.825Z,1.80
2022-09-20T06:33:28.993Z,2.55
2022-09-20T06:36:23.803Z,2.67
2022-09-20T06:39:38.461Z,2.60
2022-09-20T06:42:06.632Z,2.40
2022-09-20T06:44:34.093Z,2.60
2022-09-20T06:47:01.786Z,1.83
2022-09-20T06:49:29.428Z,7.22
2022-09-20T06:51:57.508Z,6.00
2022-09-20T06:54:26.987Z,5.00
2022-09-20T06:56:54.802Z,8.95
2022-09-20T06:59:22.313Z,7.93
2022-09-20T07:01:50.024Z,7.13
2022-09-20T07:04:17.572Z,8.00
2022-09-20T07:06:45.044Z,7.67
2022-09-20T07:09:12.625Z,7.70
2022-09-20T07:11:40.258Z,5.80
2022-09-20T07:14:07.958Z,6.85
2022-09-20T07:16:36.876Z,5.28
2022-09-20T07:19:06.563Z,5.47
2022-09-20T07:21:34.136Z,5.35
2022-09-20T07:24:02.416Z,4.30
2022-09-20T07:29:00.148Z,3.60
2022-09-20T07:31:29.648Z,3.67
2022-09-20T07:33:57.568Z,4.50
2022-09-20T07:36:25.148Z,5.63
2022-09-20T07:38:53.249Z,4.07
2022-09-20T07:41:23.307Z,4.28
2022-09-20T07:43:51.875Z,3.85
2022-09-20T07:48:50.520Z,4.57
2022-09-20T07:51:18.058Z,4.13
2022-09-20T07:53:45.560Z,3.42
2022-09-20T07:56:16.026Z,4.45
2022-09-20T07:58:48.604Z,4.68
2022-09-20T08:01:21.089Z,4.15
2022-09-20T08:03:48.906Z,2.47
2022-09-20T08:06:18.456Z,3.75
2022-09-20T08:08:45.952Z,2.08
2022-09-20T08:11:17.367Z,2.10
2022-09-20T08:14:08.056Z,1.85
2022-09-20T08:16:50.245Z,1.48
2022-09-20T08:19:23.564Z,1.20
2022-09-20T08:21:55.129Z,1.50
2022-09-20T08:24:22.787Z,1.25
2022-09-20T08:26:50.266Z,1.65
2022-09-20T08:29:17.778Z,2.70
2022-09-20T08:31:46.437Z,2.00
2022-09-20T08:34:16.129Z,2.20
2022-09-20T08:36:47.165Z,2.90
2022-09-20T08:42:22.199Z,1.75
2022-09-20T08:45:33.824Z,1.88
2022-09-20T08:48:09.797Z,1.67
2022-09-20T08:50:37.909Z,1.50
2022-09-20T08:55:37.608Z,1.65
2022-09-20T08:58:08.848Z,1.17
2022-09-20T09:00:39.820Z,1.40
2022-09-20T09:03:14.354Z,1.73
2022-09-20T09:05:45.437Z,1.70
2022-09-20T09:08:21.330Z,1.70
2022-09-20T09:10:55.131Z,1.20
2022-09-20T09:13:42.294Z,1.50
2022-09-20T09:16:22.018Z,1.60
2022-09-20T09:18:51.516Z,1.40
2022-09-20T09:21:25.944Z,1.90
2022-09-20T09:24:09.494Z,1.20
2022-09-20T09:26:40.782Z,1.10
2022-09-20T09:29:20.502Z,2.70
2022-09-20T09:31:53.076Z,1.90
2022-09-20T09:34:38.899Z,1.13
2022-09-20T09:37:24.146Z,2.58
2022-09-20T09:42:59.401Z,1.90
2022-09-20T09:45:40.872Z,1.60
2022-09-20T09:48:33.251Z,1.10
2022-09-20T09:51:23.162Z,1.35
2022-09-20T09:53:51.496Z,1.30
2022-09-20T09:57:04.743Z,1.38
2022-09-20T09:59:54.973Z,1.17
2022-09-20T10:03:20.773Z,1.75
2022-09-20T10:06:16.708Z,1.40
2022-09-20T10:09:13.020Z,1.10
2022-09-20T10:12:15.611Z,1.47
2022-09-20T10:14:55.398Z,1.60
2022-09-20T10:18:17.263Z,1.13
2022-09-20T10:21:39.069Z,1.10
2022-09-20T10:24:33.309Z,1.80
2022-09-20T10:27:30.661Z,1.20
2022-09-20T10:30:14.474Z,1.20
2022-09-20T10:32:59.857Z,1.30
2022-09-20T10:36:07.004Z,1.67
2022-09-20T10:38:57.473Z,1.45
2022-09-20T10:42:08.391Z,1.25
2022-09-20T10:45:02.279Z,1.20
2022-09-20T10:47:59.728Z,1.25
2022-09-20T10:50:51.736Z,1.30
2022-09-20T10:53:49.569Z,1.88
2022-09-20T10:56:40.071Z,1.40
2022-09-20T10:59:23.551Z,0.95
2022-09-20T11:02:14.087Z,0.70
2022-09-20T11:05:14.393Z,1.40
2022-09-20T11:08:12.104Z,1.00
2022-09-20T11:10:48.971Z,0.95
2022-09-20T11:13:32.294Z,1.10
2022-09-20T11:16:53.609Z,1.20
2022-09-20T11:20:11.353Z,2.05
2022-09-20T11:22:48.232Z,1.50
2022-09-20T11:25:44.332Z,1.23
2022-09-20T11:28:23.157Z,1.40
2022-09-20T11:31:35.975Z,1.30
2022-09-20T11:34:27.535Z,1.20
2022-09-20T11:37:03.137Z,1.30
2022-09-20T11:39:54.491Z,1.40
2022-09-20T11:42:27.872Z,1.30
2022-09-20T11:44:55.918Z,1.30
2022-09-20T11:48:09.815Z,1.30
2022-09-20T11:51:22.142Z,1.40
2022-09-20T11:54:33.105Z,1.10
2022-09-20T11:57:00.672Z,1.05
2022-09-20T11:59:41.010Z,1.10
2022-09-20T12:02:27.294Z,1.20
2022-09-20T12:04:55.981Z,1.42
2022-09-20T12:07:44.371Z,1.50
2022-09-20T12:10:42.845Z,1.10
2022-09-20T12:13:25.359Z,2.08
2022-09-20T12:16:40.976Z,2.28
2022-09-20T12:19:15.124Z,1.25
2022-09-20T12:22:00.658Z,0.70
2022-09-20T12:24:45.327Z,1.20
2022-09-20T12:27:26.331Z,1.58
2022-09-20T12:30:05.453Z,1.20
2022-09-20T12:32:52.201Z,1.48
2022-09-20T12:35:39.079Z,0.90
2022-09-20T12:38:21.495Z,1.20
2022-09-20T12:41:27.755Z,1.20
2022-09-20T12:44:03.111Z,1.85
2022-09-20T12:46:53.099Z,2.97
2022-09-20T12:49:48.258Z,2.70
2022-09-20T12:52:43.076Z,1.55
2022-09-20T12:55:41.284Z,2.35
2022-09-20T12:58:13.383Z,1.85
2022-09-20T13:01:14.738Z,1.20
2022-09-20T13:03:46.896Z,0.90
2022-09-20T13:06:14.972Z,1.33
2022-09-20T13:11:54.312Z,1.08
2022-09-20T13:14:28.134Z,1.50
2022-09-20T13:17:19.336Z,1.67
2022-09-20T13:19:49.327Z,1.90
2022-09-20T13:22:33.145Z,1.73
2022-09-20T13:25:05.568Z,1.02
2022-09-20T13:27:38.567Z,0.90
2022-09-20T13:30:24.347Z,3.72
2022-09-20T13:32:52.805Z,4.60
2022-09-20T13:35:24.044Z,3.13
2022-09-20T13:38:02.230Z,2.50
2022-09-20T13:40:50.048Z,2.38
2022-09-20T13:46:12.317Z,0.80
2022-09-20T13:48:40.846Z,1.00
2022-09-20T13:51:40.718Z,1.50
2022-09-20T13:54:18.624Z,1.80
2022-09-20T13:59:19.384Z,1.08
2022-09-20T14:01:54.481Z,1.30
2022-09-20T14:04:28.992Z,1.10
2022-09-20T14:06:59.754Z,0.90
2022-09-20T14:09:35.128Z,0.93
2022-09-20T14:12:06.453Z,1.40
2022-09-20T14:14:35.750Z,0.80
2022-09-20T14:17:08.798Z,0.80
2022-09-20T14:19:41.857Z,0.95
2022-09-20T14:22:20.944Z,1.05
2022-09-20T14:25:25.540Z,0.93
2022-09-20T14:28:19.761Z,1.75
2022-09-20T14:30:48.836Z,2.00
2022-09-20T14:33:21.199Z,2.40
2022-09-20T14:35:51.514Z,1.67
2022-09-20T14:38:26.831Z,1.98
2022-09-20T14:40:54.531Z,2.10
2022-09-20T14:43:34.845Z,1.83
2022-09-20T14:46:08.710Z,1.35
2022-09-20T14:48:41.380Z,1.50
2022-09-20T14:51:29.195Z,1.42
2022-09-20T14:54:05.911Z,1.10
2022-09-20T14:56:39.530Z,1.30
2022-09-20T14:59:13.928Z,1.55
2022-09-20T15:01:55.905Z,1.70
2022-09-20T15:04:27.382Z,1.52
2022-09-20T15:07:01.028Z,1.70
2022-09-20T15:09:30.033Z,2.45
2022-09-20T15:12:17.821Z,2.60
2022-09-20T15:14:46.991Z,1.80
2022-09-20T15:17:18.556Z,2.05
2022-09-20T15:19:47.993Z,1.98
2022-09-20T15:22:15.713Z,2.00
2022-09-20T15:24:43.498Z,2.15
2022-09-20T15:27:14.261Z,1.80
2022-09-20T15:29:41.721Z,1.50
2022-09-20T15:32:12.325Z,1.42
2022-09-20T15:34:39.792Z,1.90
2022-09-20T15:37:07.991Z,1.90
2022-09-20T15:42:03.332Z,1.90
2022-09-20T15:44:32.676Z,2.17
2022-09-20T15:47:00.224Z,2.10
2022-09-20T15:49:27.736Z,2.00
2022-09-20T15:51:55.220Z,2.60
2022-09-20T15:54:22.971Z,1.27
2022-09-20T15:56:51.872Z,1.00
2022-09-20T15:59:23.102Z,1.23
2022-09-20T16:01:51.647Z,1.10
2022-09-20T16:04:20.553Z,1.17
2022-09-20T16:06:50.511Z,1.30
2022-09-20T16:09:19.632Z,1.13
2022-09-20T16:11:48.384Z,0.95
2022-09-20T16:14:15.865Z,1.10
2022-09-20T16:16:43.413Z,1.40
2022-09-20T16:19:17.445Z,1.30
2022-09-20T16:21:58.539Z,1.33
2022-09-20T16:24:33.964Z,1.00
2022-09-20T16:27:06.134Z,1.33
2022-09-20T16:29:34.589Z,2.65
2022-09-20T16:32:03.717Z,3.60
2022-09-20T16:34:36.512Z,3.55
2022-09-20T16:37:14.821Z,2.95
2022-09-20T16:39:42.829Z,2.00
2022-09-20T16:42:12.883Z,1.70
2022-09-20T16:44:42.962Z,2.40
2022-09-20T16:47:18.687Z,2.45
2022-09-20T16:49:47.333Z,7.72
2022-09-20T16:52:15.050Z,11.07
2022-09-20T16:54:42.542Z,15.27
2022-09-20T16:57:10.021Z,17.57
2022-09-20T16:59:37.501Z,10.57
2022-09-20T17:02:05.031Z,13.37
2022-09-20T17:04:32.551Z,14.60
2022-09-20T17:07:01.753Z,12.07
2022-09-20T17:09:29.342Z,11.48
2022-09-20T17:11:56.886Z,10.90
2022-09-20T17:14:25.043Z,10.50
2022-09-20T17:16:52.596Z,12.88
2022-09-20T17:19:21.301Z,16.47
2022-09-20T17:21:50.959Z,18.15
2022-09-20T17:24:23.191Z,18.42
2022-09-20T17:26:52.525Z,18.60
2022-09-20T17:29:21.261Z,17.85
2022-09-20T17:31:55.490Z,14.80
2022-09-20T17:34:24.614Z,11.48
2022-09-20T17:36:54.178Z,12.27
2022-09-20T17:39:21.683Z,11.88
2022-09-20T17:41:50.735Z,15.87
2022-09-20T17:44:18.842Z,20.27
2022-09-20T17:46:49.912Z,20.48
2022-09-20T17:49:20.891Z,14.90
2022-09-20T17:51:54.495Z,12.90
2022-09-20T17:54:24.596Z,11.95
2022-09-20T17:56:55.932Z,13.48
2022-09-20T17:59:24.652Z,12.55
2022-09-20T18:04:24.421Z,13.45
2022-09-20T18:06:54.733Z,12.35
2022-09-20T18:09:25.279Z,10.45
2022-09-20T18:11:55.730Z,8.98
2022-09-20T18:14:27.636Z,9.65
2022-09-20T18:17:00.723Z,10.43
2022-09-20T18:19:35.748Z,12.05
2022-09-20T18:22:04.142Z,12.65
2022-09-20T18:27:00.826Z,9.18
2022-09-20T18:29:31.827Z,7.45
2022-09-20T18:32:00.829Z,6.20
2022-09-20T18:34:33.549Z,5.35
2022-09-20T18:37:03.783Z,5.10
2022-09-20T18:39:34.764Z,5.30
2022-09-20T18:42:03.510Z,6.53
2022-09-20T18:44:34.308Z,9.43
2022-09-20T18:47:05.728Z,13.48
2022-09-20T18:49:33.395Z,8.98
2022-09-20T18:52:01.543Z,9.27
2022-09-20T18:54:33.208Z,11.18
2022-09-20T18:57:01.076Z,12.63
2022-09-20T18:59:29.061Z,11.55
2022-09-20T19:02:31.296Z,7.63
2022-09-20T19:05:20.081Z,4.70
2022-09-20T19:08:05.547Z,6.53
2022-09-20T19:10:51.356Z,9.95
2022-09-20T19:13:55.070Z,8.27
2022-09-20T19:16:31.961Z,6.97
2022-09-20T19:19:26.416Z,6.22
2022-09-20T19:22:34.823Z,6.80
2022-09-20T19:25:43.426Z,9.20
2022-09-20T19:28:14.735Z,8.63
2022-09-20T19:30:43.137Z,8.90
2022-09-20T19:33:17.776Z,7.80
2022-09-20T19:35:50.471Z,7.10
2022-09-20T19:38:40.674Z,5.65
2022-09-20T19:41:38.375Z,5.00
2022-09-20T19:44:54.794Z,4.60
2022-09-20T19:48:07.049Z,7.03
2022-09-20T19:50:52.877Z,8.02
2022-09-20T19:53:28.076Z,4.85
2022-09-20T19:56:24.715Z,3.88
2022-09-20T19:58:54.152Z,3.75
2022-09-20T20:01:23.967Z,6.63
2022-09-20T20:03:55.861Z,4.82
2022-09-20T20:06:39.072Z,4.22
2022-09-20T20:09:29.146Z,3.42
2022-09-20T20:12:25.692Z,3.67
2022-09-20T20:15:16.225Z,4.07
2022-09-20T20:18:39.051Z,3.58
2022-09-20T20:21:24.726Z,5.13
2022-09-20T20:24:41.394Z,5.18
2022-09-20T20:27:08.923Z,4.80
2022-09-20T20:29:36.386Z,5.53
2022-09-20T20:32:03.968Z,4.35
2022-09-20T20:34:31.416Z,3.60
2022-09-20T20:37:00.963Z,3.65
2022-09-20T20:39:29.654Z,4.40
2022-09-20T20:42:02.564Z,4.35
2022-09-20T20:44:37.780Z,4.70
2022-09-20T20:47:07.119Z,5.30
2022-09-20T20:49:35.934Z,5.30
2022-09-20T20:52:05.124Z,5.25
2022-09-20T20:54:32.960Z,4.80
2022-09-20T20:57:00.646Z,4.82
2022-09-20T20:59:29.822Z,4.68
2022-09-20T21:01:57.332Z,4.07
2022-09-20T21:04:25.393Z,3.50
2022-09-20T21:06:52.823Z,3.28
2022-09-20T21:09:20.359Z,3.80
2022-09-20T21:11:48.462Z,3.60
2022-09-20T21:14:16.493Z,4.30
2022-09-20T21:16:45.037Z,3.40
2022-09-20T21:19:15.618Z,3.85
2022-09-20T21:21:46.043Z,3.40
2022-09-20T21:24:17.351Z,3.55
2022-09-20T21:26:46.529Z,3.78
2022-09-20T21:29:16.646Z,3.28
2022-09-20T21:31:46.696Z,3.60
2022-09-20T21:34:15.947Z,3.50
2022-09-20T21:36:44.848Z,3.47
2022-09-20T21:39:13.290Z,3.55
2022-09-20T21:41:41.500Z,3.67
2022-09-20T21:44:12.287Z,3.60
2022-09-20T21:46:42.156Z,2.72
2022-09-20T21:49:12.376Z,2.80
2022-09-20T21:51:42.690Z,2.88
2022-09-20T21:54:11.248Z,2.42
2022-09-20T21:59:08.216Z,2.20
2022-09-20T22:01:40.312Z,2.08
2022-09-20T22:04:11.631Z,2.72
2022-09-20T22:06:42.802Z,2.60
2022-09-20T22:09:17.739Z,2.80
2022-09-20T22:11:48.521Z,2.40
2022-09-20T22:14:19.677Z,3.55
2022-09-20T22:16:49.188Z,2.28
2022-09-20T22:19:19.192Z,2.28
2022-09-20T22:21:49.747Z,2.40
2022-09-20T22:24:18.023Z,2.35
2022-09-20T22:26:51.036Z,2.00
2022-09-20T22:29:18.834Z,2.10
2022-09-20T22:31:48.122Z,2.10
2022-09-20T22:34:21.317Z,2.10
2022-09-20T22:36:49.324Z,2.10
2022-09-20T22:39:17.312Z,2.17
2022-09-20T22:41:47.721Z,2.50
2022-09-20T22:44:15.450Z,2.50
2022-09-20T22:46:42.915Z,2.40
2022-09-20T22:49:10.457Z,2.43
2022-09-20T22:51:38.679Z,2.27
2022-09-20T22:54:10.150Z,2.10
2022-09-20T22:56:41.217Z,1.98
2022-09-20T22:59:12.751Z,1.83
2022-09-20T23:01:47.949Z,1.90
2022-09-20T23:04:19.367Z,1.65
2022-09-20T23:06:57.007Z,1.92
2022-09-20T23:09:28.210Z,1.70
2022-09-20T23:11:56.508Z,1.65
2022-09-20T23:14:24.019Z,1.70
2022-09-20T23:16:51.660Z,1.60
2022-09-20T23:19:19.173Z,1.80
2022-09-20T23:21:46.850Z,1.60
2022-09-20T23:24:16.602Z,1.50
2022-09-20T23:26:44.766Z,1.70
2022-09-20T23:29:16.267Z,1.45
2022-09-20T23:31:46.680Z,1.50
2022-09-20T23:34:16.297Z,1.80
2022-09-20T23:36:45.138Z,1.70
2022-09-20T23:39:13.149Z,1.70
2022-09-20T23:41:41.559Z,1.73
2022-09-20T23:44:10.358Z,2.47
2022-09-20T23:46:39.065Z,1.88
2022-09-20T23:49:09.029Z,1.95
2022-09-20T23:51:37.367Z,2.20
2022-09-20T23:54:05.949Z,3.70
2022-09-20T23:59:01.011Z,2.35
